createdAt,value
2023-05-21T00:00:10.688Z,17.30
2023-05-21T00:03:16.500Z,17.11
2023-05-21T00:06:21.093Z,17.14
2023-05-21T00:09:23.510Z,16.89
2023-05-21T00:12:26.103Z,16.90
2023-05-21T00:15:28.459Z,16.95
2023-05-21T00:18:32.466Z,16.82
2023-05-21T00:21:34.767Z,16.72
2023-05-21T00:24:36.983Z,16.69
2023-05-21T00:27:39.402Z,16.62
2023-05-21T00:30:43.130Z,16.64
2023-05-21T00:33:45.355Z,16.80
2023-05-21T00:36:47.807Z,16.67
2023-05-21T00:39:50.482Z,16.51
2023-05-21T00:42:57.130Z,16.54
2023-05-21T00:45:59.846Z,16.58
2023-05-21T00:49:02.133Z,16.48
2023-05-21T00:52:05.433Z,16.33
2023-05-21T00:55:08.772Z,16.27
2023-05-21T00:58:11.138Z,16.39
2023-05-21T01:01:14.149Z,16.25
2023-05-21T01:04:16.669Z,16.25
2023-05-21T01:07:18.928Z,16.14
2023-05-21T01:10:21.169Z,16.13
2023-05-21T01:13:24.337Z,15.95
2023-05-21T01:16:26.743Z,15.92
2023-05-21T01:19:29.177Z,15.86
2023-05-21T01:22:32.527Z,15.76
2023-05-21T01:25:35.804Z,15.61
2023-05-21T01:28:38.461Z,15.85
2023-05-21T01:32:09.795Z,15.64
2023-05-21T01:35:15.015Z,15.58
2023-05-21T01:38:25.332Z,15.39
2023-05-21T01:41:29.938Z,15.39
2023-05-21T01:44:33.025Z,15.42
2023-05-21T01:47:36.316Z,15.29
2023-05-21T01:50:39.648Z,15.48
2023-05-21T01:53:42.136Z,15.44
2023-05-21T01:56:44.438Z,15.48
2023-05-21T01:59:47.885Z,15.45
2023-05-21T02:02:50.835Z,15.48
2023-05-21T02:05:53.227Z,15.59
2023-05-21T02:08:55.734Z,15.50
2023-05-21T02:11:58.282Z,15.60
2023-05-21T02:15:00.514Z,15.54
2023-05-21T02:18:03.568Z,15.63
2023-05-21T02:21:05.905Z,15.70
2023-05-21T02:24:08.200Z,15.80
2023-05-21T02:27:10.671Z,15.61
2023-05-21T02:30:14.433Z,15.65
2023-05-21T02:33:16.710Z,15.62
2023-05-21T02:36:19.021Z,15.61
2023-05-21T02:39:21.379Z,15.70
2023-05-21T02:42:23.842Z,15.53
2023-05-21T02:45:26.249Z,15.68
2023-05-21T02:48:28.456Z,15.62
2023-05-21T02:51:30.817Z,15.69
2023-05-21T02:54:33.043Z,15.73
2023-05-21T02:57:35.235Z,15.61
2023-05-21T03:00:37.450Z,15.66
2023-05-21T03:03:39.713Z,15.66
2023-05-21T03:06:42.014Z,15.67
2023-05-21T03:09:44.272Z,15.85
2023-05-21T03:12:47.209Z,15.78
2023-05-21T03:15:49.397Z,15.80
2023-05-21T03:18:51.790Z,15.65
2023-05-21T03:21:54.702Z,15.64
2023-05-21T03:24:58.263Z,15.80
2023-05-21T03:28:00.482Z,15.81
2023-05-21T03:31:02.763Z,15.88
2023-05-21T03:34:05.026Z,15.93
2023-05-21T03:37:07.240Z,16.00
2023-05-21T03:40:09.853Z,15.72
2023-05-21T03:43:12.135Z,15.81
2023-05-21T03:46:14.352Z,16.05
2023-05-21T03:49:16.583Z,16.57
2023-05-21T03:52:18.839Z,17.08
2023-05-21T03:55:21.093Z,17.50
2023-05-21T03:58:23.472Z,17.44
2023-05-21T04:01:25.695Z,17.77
2023-05-21T04:04:29.536Z,18.67
2023-05-21T04:07:31.935Z,19.05
2023-05-21T04:10:34.717Z,19.29
2023-05-21T04:13:36.953Z,19.44
2023-05-21T04:16:39.243Z,20.00
2023-05-21T04:19:42.057Z,19.82
2023-05-21T04:22:44.403Z,20.30
2023-05-21T04:25:50.807Z,20.10
2023-05-21T04:28:59.413Z,20.42
2023-05-21T04:32:01.661Z,20.26
2023-05-21T04:35:04.368Z,20.22
2023-05-21T04:38:06.611Z,20.50
2023-05-21T04:41:10.893Z,20.72
2023-05-21T04:44:14.977Z,21.01
2023-05-21T04:47:21.101Z,20.97
2023-05-21T04:50:24.341Z,20.94
2023-05-21T04:53:26.625Z,21.56
2023-05-21T04:56:29.606Z,21.41
2023-05-21T04:59:31.998Z,21.39
2023-05-21T05:02:34.288Z,21.13
2023-05-21T05:05:36.773Z,20.79
2023-05-21T05:08:39.243Z,20.98
2023-05-21T05:11:41.508Z,20.70
2023-05-21T05:14:43.766Z,20.72
2023-05-21T05:17:48.357Z,20.15
2023-05-21T05:20:50.639Z,20.32
2023-05-21T05:23:52.967Z,20.15
2023-05-21T05:26:55.168Z,20.18
2023-05-21T05:29:57.381Z,20.35
2023-05-21T05:32:59.637Z,20.25
2023-05-21T05:36:01.834Z,20.40
2023-05-21T05:39:04.099Z,20.16
2023-05-21T05:42:06.348Z,20.21
2023-05-21T05:45:09.121Z,20.43
2023-05-21T05:48:12.069Z,20.20
2023-05-21T05:51:15.482Z,20.38
2023-05-21T05:54:17.788Z,20.42
2023-05-21T05:57:20.044Z,20.06
2023-05-21T06:00:22.385Z,20.36
2023-05-21T06:03:24.683Z,20.68
2023-05-21T06:06:26.947Z,20.35
2023-05-21T06:09:29.162Z,20.57
2023-05-21T06:12:31.380Z,20.81
2023-05-21T06:15:33.879Z,20.68
2023-05-21T06:18:36.239Z,20.77
2023-05-21T06:21:38.611Z,20.95
2023-05-21T06:24:40.873Z,21.02
2023-05-21T06:27:43.178Z,21.18
2023-05-21T06:30:45.525Z,21.31
2023-05-21T06:33:49.559Z,21.19
2023-05-21T06:36:51.882Z,21.01
2023-05-21T06:39:54.104Z,21.49
2023-05-21T06:42:56.653Z,21.05
2023-05-21T06:45:58.891Z,21.43
2023-05-21T06:49:01.467Z,21.63
2023-05-21T06:52:03.865Z,21.58
2023-05-21T06:55:07.099Z,21.68
2023-05-21T06:58:09.376Z,22.02
2023-05-21T07:01:14.494Z,21.66
2023-05-21T07:04:16.764Z,21.81
2023-05-21T07:07:19.065Z,21.78
2023-05-21T07:10:21.413Z,22.15
2023-05-21T07:13:23.620Z,22.27
2023-05-21T07:16:26.045Z,22.24
2023-05-21T07:19:28.362Z,22.35
2023-05-21T07:22:30.696Z,22.08
2023-05-21T07:25:33.016Z,21.90
2023-05-21T07:28:35.210Z,22.24
2023-05-21T07:31:37.555Z,22.80
2023-05-21T07:34:39.877Z,23.21
2023-05-21T07:37:42.136Z,22.98
2023-05-21T07:40:44.686Z,23.15
2023-05-21T07:43:46.929Z,23.09
2023-05-21T07:46:49.197Z,22.95
2023-05-21T07:49:51.599Z,22.53
2023-05-21T07:52:53.946Z,22.93
2023-05-21T07:55:56.198Z,23.07
2023-05-21T07:58:58.481Z,23.28
2023-05-21T08:02:00.856Z,23.61
2023-05-21T08:05:03.408Z,23.53
2023-05-21T08:08:05.749Z,23.31
2023-05-21T08:11:07.960Z,22.97
2023-05-21T08:14:10.332Z,22.93
2023-05-21T08:17:12.750Z,23.02
2023-05-21T08:20:15.348Z,23.33
2023-05-21T08:23:17.596Z,23.89
2023-05-21T08:26:19.878Z,23.67
2023-05-21T08:29:22.148Z,23.91
2023-05-21T08:32:24.444Z,23.98
2023-05-21T08:35:26.705Z,24.06
2023-05-21T08:38:30.450Z,24.33
2023-05-21T08:41:35.597Z,24.63
2023-05-21T08:44:38.212Z,24.75
2023-05-21T08:47:43.810Z,24.46
2023-05-21T08:50:46.575Z,24.48
2023-05-21T08:53:50.594Z,24.14
2023-05-21T08:56:53.470Z,24.29
2023-05-21T08:59:55.914Z,24.65
2023-05-21T09:03:01.812Z,25.04
2023-05-21T09:06:04.204Z,24.14
2023-05-21T09:09:26.373Z,23.77
2023-05-21T09:12:28.786Z,24.08
2023-05-21T09:15:31.547Z,23.79
2023-05-21T09:18:33.998Z,24.33
2023-05-21T09:21:36.206Z,24.61
2023-05-21T09:24:38.637Z,24.78
2023-05-21T09:27:41.075Z,24.79
2023-05-21T09:30:47.784Z,25.30
2023-05-21T09:33:50.753Z,25.10
2023-05-21T09:36:56.850Z,25.13
2023-05-21T09:39:59.070Z,25.39
2023-05-21T09:43:01.392Z,25.36
2023-05-21T09:46:03.710Z,25.37
2023-05-21T09:49:06.090Z,25.67
2023-05-21T09:52:08.354Z,25.27
2023-05-21T09:55:12.661Z,24.94
2023-05-21T09:58:14.900Z,25.21
2023-05-21T10:01:20.160Z,25.26
2023-05-21T10:04:23.402Z,25.75
2023-05-21T10:07:26.495Z,25.41
2023-05-21T10:10:30.311Z,25.36
2023-05-21T10:13:34.397Z,24.64
2023-05-21T10:16:37.401Z,24.89
2023-05-21T10:19:41.142Z,25.31
2023-05-21T10:22:44.672Z,24.87
2023-05-21T10:25:47.369Z,24.89
2023-05-21T10:28:50.987Z,25.15
2023-05-21T10:31:53.418Z,25.38
2023-05-21T10:34:58.664Z,25.50
2023-05-21T10:38:04.546Z,25.36
2023-05-21T10:41:07.106Z,24.91
2023-05-21T10:44:33.747Z,24.90
2023-05-21T10:48:16.584Z,24.85
2023-05-21T10:51:22.555Z,24.47
2023-05-21T10:54:42.253Z,24.72
2023-05-21T10:58:16.793Z,25.14
2023-05-21T11:01:19.502Z,24.96
2023-05-21T11:04:23.478Z,25.26
2023-05-21T11:07:57.047Z,25.46
2023-05-21T11:10:59.508Z,25.35
2023-05-21T11:14:01.760Z,25.48
2023-05-21T11:17:15.569Z,25.40
2023-05-21T11:20:21.778Z,25.57
2023-05-21T11:23:24.028Z,25.73
2023-05-21T11:26:28.821Z,25.93
2023-05-21T11:29:42.123Z,25.97
2023-05-21T11:33:12.276Z,26.16
2023-05-21T11:36:14.663Z,26.26
2023-05-21T11:39:23.959Z,26.39
2023-05-21T11:42:34.407Z,26.53
2023-05-21T11:45:36.732Z,26.27
2023-05-21T11:48:39.137Z,26.56
2023-05-21T11:51:41.576Z,26.41
2023-05-21T11:54:51.924Z,26.24
2023-05-21T11:57:55.393Z,26.27
2023-05-21T12:00:57.805Z,25.83
2023-05-21T12:04:04.475Z,25.89
2023-05-21T12:07:10.403Z,26.07
2023-05-21T12:10:13.181Z,26.40
2023-05-21T12:13:15.444Z,26.45
2023-05-21T12:16:17.760Z,26.45
2023-05-21T12:19:20.113Z,26.66
2023-05-21T12:22:24.589Z,26.93
2023-05-21T12:25:27.484Z,26.80
2023-05-21T12:28:30.065Z,26.55
2023-05-21T12:31:32.963Z,26.41
2023-05-21T12:34:46.193Z,26.13
2023-05-21T12:37:50.620Z,26.39
2023-05-21T12:40:53.002Z,26.28
2023-05-21T12:43:55.238Z,26.39
2023-05-21T12:46:58.203Z,26.24
2023-05-21T12:50:04.425Z,26.09
2023-05-21T12:53:09.274Z,26.21
2023-05-21T12:56:12.301Z,26.58
2023-05-21T12:59:15.520Z,26.37
2023-05-21T13:02:25.027Z,26.37
2023-05-21T13:05:27.305Z,26.22
2023-05-21T13:08:29.635Z,26.53
2023-05-21T13:11:31.868Z,26.59
2023-05-21T13:14:34.219Z,26.57
2023-05-21T13:17:36.502Z,26.34
2023-05-21T13:20:38.946Z,26.16
2023-05-21T13:23:41.465Z,26.19
2023-05-21T13:26:43.696Z,26.08
2023-05-21T13:29:46.089Z,25.93
2023-05-21T13:32:48.695Z,25.83
2023-05-21T13:35:51.878Z,25.78
2023-05-21T13:38:56.397Z,25.88
2023-05-21T13:41:59.278Z,25.80
2023-05-21T13:45:01.618Z,26.00
2023-05-21T13:48:04.032Z,26.11
2023-05-21T13:51:06.362Z,26.07
2023-05-21T13:54:08.757Z,25.92
2023-05-21T13:57:11.118Z,26.24
2023-05-21T14:00:15.478Z,26.14
2023-05-21T14:03:17.887Z,25.83
2023-05-21T14:06:20.151Z,25.88
2023-05-21T14:09:23.478Z,25.42
2023-05-21T14:12:26.742Z,25.66
2023-05-21T14:15:28.966Z,26.02
2023-05-21T14:18:31.174Z,25.79
2023-05-21T14:21:33.383Z,25.83
2023-05-21T14:24:35.593Z,25.99
2023-05-21T14:27:38.290Z,25.94
2023-05-21T14:30:40.724Z,25.91
2023-05-21T14:33:42.926Z,25.73
2023-05-21T14:36:45.270Z,25.81
2023-05-21T14:39:47.509Z,25.98
2023-05-21T14:42:52.208Z,26.03
2023-05-21T14:45:54.472Z,25.92
2023-05-21T14:48:59.228Z,25.69
2023-05-21T14:52:01.525Z,25.47
2023-05-21T14:55:04.364Z,25.63
2023-05-21T14:58:07.216Z,25.45
2023-05-21T15:01:09.499Z,25.44
2023-05-21T15:04:12.061Z,25.54
2023-05-21T15:07:14.416Z,25.63
2023-05-21T15:10:18.546Z,25.52
2023-05-21T15:13:21.458Z,25.80
2023-05-21T15:16:23.856Z,25.62
2023-05-21T15:19:26.263Z,25.65
2023-05-21T15:22:28.592Z,25.84
2023-05-21T15:25:30.858Z,25.92
2023-05-21T15:28:33.088Z,25.86
2023-05-21T15:31:35.548Z,25.88
2023-05-21T15:34:37.956Z,25.57
2023-05-21T15:37:40.555Z,25.61
2023-05-21T15:40:42.906Z,25.21
2023-05-21T15:43:46.265Z,25.42
2023-05-21T15:46:50.005Z,25.50
2023-05-21T15:49:52.343Z,25.35
2023-05-21T15:52:54.571Z,25.51
2023-05-21T15:55:57.308Z,25.55
2023-05-21T15:59:01.397Z,25.47
2023-05-21T16:02:03.756Z,25.41
2023-05-21T16:05:06.299Z,25.35
2023-05-21T16:08:10.763Z,25.25
2023-05-21T16:11:13.242Z,25.36
2023-05-21T16:14:15.522Z,25.30
2023-05-21T16:17:19.599Z,25.24
2023-05-21T16:20:22.208Z,25.20
2023-05-21T16:23:24.462Z,25.04
2023-05-21T16:26:27.050Z,25.04
2023-05-21T16:29:29.301Z,24.99
2023-05-21T16:32:31.614Z,24.95
2023-05-21T16:35:34.050Z,25.02
2023-05-21T16:38:36.338Z,24.97
2023-05-21T16:41:38.576Z,24.95
2023-05-21T16:44:40.887Z,24.75
2023-05-21T16:47:43.158Z,24.81
2023-05-21T16:50:46.955Z,24.77
2023-05-21T16:53:49.209Z,24.86
2023-05-21T16:56:51.487Z,24.63
2023-05-21T16:59:53.741Z,24.67
2023-05-21T17:02:56.217Z,24.51
2023-05-21T17:05:58.956Z,24.53
2023-05-21T17:09:01.852Z,24.50
2023-05-21T17:12:04.515Z,24.38
2023-05-21T17:15:07.332Z,24.41
2023-05-21T17:18:09.606Z,24.39
2023-05-21T17:21:11.949Z,24.29
2023-05-21T17:24:14.182Z,24.18
2023-05-21T17:27:16.417Z,24.25
2023-05-21T17:30:18.862Z,24.25
2023-05-21T17:33:21.424Z,24.11
2023-05-21T17:36:23.668Z,24.04
2023-05-21T17:39:26.056Z,23.90
2023-05-21T17:42:28.358Z,23.80
2023-05-21T17:45:30.557Z,23.78
2023-05-21T17:48:32.786Z,23.68
2023-05-21T17:51:35.069Z,23.57
2023-05-21T17:54:37.312Z,23.49
2023-05-21T17:57:39.548Z,23.40
2023-05-21T18:00:41.851Z,23.11
2023-05-21T18:03:44.324Z,22.96
2023-05-21T18:06:46.587Z,22.83
2023-05-21T18:09:48.880Z,22.47
2023-05-21T18:12:51.099Z,22.14
2023-05-21T18:15:56.307Z,21.94
2023-05-21T18:18:58.737Z,21.54
2023-05-21T18:22:01.013Z,21.22
2023-05-21T18:25:04.235Z,21.02
2023-05-21T18:28:06.572Z,20.84
2023-05-21T18:31:08.920Z,20.64
2023-05-21T18:34:11.233Z,20.57
2023-05-21T18:37:13.467Z,20.52
2023-05-21T18:40:16.995Z,20.24
2023-05-21T18:43:19.240Z,20.04
2023-05-21T18:46:21.804Z,20.09
2023-05-21T18:49:24.380Z,19.94
2023-05-21T18:52:26.769Z,19.78
2023-05-21T18:55:29.095Z,19.53
2023-05-21T18:58:33.077Z,19.75
2023-05-21T19:01:35.630Z,19.52
2023-05-21T19:04:38.040Z,19.53
2023-05-21T19:07:43.732Z,19.39
2023-05-21T19:10:46.014Z,19.17
2023-05-21T19:13:48.276Z,19.05
2023-05-21T19:16:50.516Z,19.17
2023-05-21T19:19:56.153Z,19.06
2023-05-21T19:22:58.630Z,18.76
2023-05-21T19:26:01.294Z,18.60
2023-05-21T19:29:03.528Z,18.45
2023-05-21T19:32:06.412Z,18.43
2023-05-21T19:35:08.774Z,18.52
2023-05-21T19:38:11.156Z,18.22
2023-05-21T19:41:13.566Z,18.04
2023-05-21T19:44:15.967Z,17.85
2023-05-21T19:47:18.229Z,17.90
2023-05-21T19:50:20.542Z,17.94
2023-05-21T19:53:23.291Z,17.75
2023-05-21T19:56:26.719Z,17.87
2023-05-21T19:59:28.968Z,17.86
2023-05-21T20:02:31.507Z,17.94
2023-05-21T20:05:33.736Z,17.84
2023-05-21T20:08:36.128Z,17.75
2023-05-21T20:11:38.373Z,17.87
2023-05-21T20:14:41.732Z,17.69
2023-05-21T20:17:44.711Z,17.82
2023-05-21T20:20:47.333Z,17.87
2023-05-21T20:23:49.668Z,17.83
2023-05-21T20:26:52.174Z,17.73
2023-05-21T20:29:54.384Z,17.42
2023-05-21T20:32:57.489Z,17.52
2023-05-21T20:36:00.307Z,17.58
2023-05-21T20:39:02.851Z,17.54
2023-05-21T20:42:08.608Z,17.30
2023-05-21T20:45:12.873Z,17.28
2023-05-21T20:48:15.120Z,17.22
2023-05-21T20:51:17.360Z,17.43
2023-05-21T20:54:19.549Z,17.30
2023-05-21T20:57:26.224Z,17.33
2023-05-21T21:00:28.713Z,17.32
2023-05-21T21:03:34.321Z,17.35
2023-05-21T21:06:38.442Z,17.24
2023-05-21T21:09:41.260Z,16.89
2023-05-21T21:12:43.461Z,17.02
2023-05-21T21:15:45.752Z,16.93
2023-05-21T21:18:48.056Z,16.88
2023-05-21T21:21:51.505Z,17.01
2023-05-21T21:24:53.710Z,17.10
2023-05-21T21:27:55.979Z,17.43
2023-05-21T21:30:58.306Z,17.77
2023-05-21T21:34:00.933Z,17.92
2023-05-21T21:37:03.261Z,17.68
2023-05-21T21:40:06.486Z,17.51
2023-05-21T21:43:08.750Z,17.27
2023-05-21T21:46:10.982Z,17.37
2023-05-21T21:49:14.449Z,17.51
2023-05-21T21:52:17.729Z,17.66
2023-05-21T21:55:20.035Z,17.79
2023-05-21T21:58:22.242Z,17.73
2023-05-21T22:01:24.534Z,17.34
2023-05-21T22:04:26.898Z,17.02
2023-05-21T22:07:32.013Z,16.92
2023-05-21T22:10:38.195Z,17.09
2023-05-21T22:13:41.847Z,17.29
2023-05-21T22:16:44.176Z,17.45
2023-05-21T22:19:46.486Z,17.47
2023-05-21T22:22:49.422Z,17.54
2023-05-21T22:25:51.718Z,17.51
2023-05-21T22:28:53.922Z,17.49
2023-05-21T22:31:56.204Z,17.44
2023-05-21T22:34:58.431Z,17.26
2023-05-21T22:38:01.740Z,17.47
2023-05-21T22:41:04.045Z,17.42
2023-05-21T22:44:06.261Z,17.43
2023-05-21T22:47:09.524Z,17.25
2023-05-21T22:50:12.870Z,17.13
2023-05-21T22:53:15.122Z,17.25
2023-05-21T22:56:17.371Z,17.44
2023-05-21T22:59:19.576Z,17.47
2023-05-21T23:02:21.846Z,17.14
2023-05-21T23:05:24.183Z,16.87
2023-05-21T23:08:26.802Z,17.19
2023-05-21T23:11:29.139Z,17.00
2023-05-21T23:14:31.410Z,16.92
2023-05-21T23:17:33.834Z,17.12
2023-05-21T23:20:36.901Z,17.12
2023-05-21T23:23:39.505Z,16.91
2023-05-21T23:26:41.721Z,16.90
2023-05-21T23:29:43.967Z,17.13
2023-05-21T23:32:46.492Z,17.40
2023-05-21T23:35:48.873Z,17.47
2023-05-21T23:38:51.103Z,17.32
2023-05-21T23:41:53.341Z,17.29
2023-05-21T23:44:55.766Z,17.22
2023-05-21T23:47:58.039Z,16.78
2023-05-21T23:51:00.900Z,16.64
2023-05-21T23:54:03.361Z,16.66
2023-05-21T23:57:06.382Z,16.52
